Time;durP1;ratioP1;P1;durP2;ratioP2;P2;SDS_P1;SDS_P2;PMS_P1;PMS_P2;Temp;Humidity;BMP_temperature;BMP_pressure;BME280_temperature;BME280_humidity;BME280_pressure;Samples;Min_cycle;Max_cycle;Signal;HPM_P1;HPM_P2
2021/10/10 00:00:05;;;;;;;54.67;41.10;;;;;;;;;;5055598;28;20627;-71
2021/10/10 00:02:32;;;;;;;50.23;39.93;;;;;;;;;;5055229;28;20217;-71
2021/10/10 00:04:58;;;;;;;51.47;39.10;;;;;;;;;;5058390;28;20275;-71
2021/10/10 00:07:24;;;;;;;52.93;37.63;;;;;;;;;;5056590;28;20266;-71
2021/10/10 00:09:52;;;;;;;51.63;39.67;;;;;;;;;;5054671;28;20211;-71
2021/10/10 00:12:18;;;;;;;52.23;41.77;;;;;;;;;;5057647;28;20865;-72
2021/10/10 00:14:45;;;;;;;57.17;42.67;;;;;;;;;;5054568;28;20574;-71
2021/10/10 00:17:11;;;;;;;52.87;40.77;;;;;;;;;;5055716;28;20216;-72
2021/10/10 00:19:38;;;;;;;52.80;40.90;;;;;;;;;;5056367;28;20219;-71
2021/10/10 00:22:04;;;;;;;54.40;41.37;;;;;;;;;;5056398;28;20258;-72
2021/10/10 00:24:30;;;;;;;49.63;39.23;;;;;;;;;;5057182;28;20212;-71
2021/10/10 00:26:58;;;;;;;53.60;40.33;;;;;;;;;;5057415;28;20236;-72
2021/10/10 00:29:24;;;;;;;48.20;40.40;;;;;;;;;;5055966;28;20207;-71
2021/10/10 00:31:51;;;;;;;52.23;39.37;;;;;;;;;;5056397;28;20220;-71
2021/10/10 00:34:17;;;;;;;103.57;44.00;;;;;;;;;;5053514;28;20262;-71
2021/10/10 00:36:44;;;;;;;47.57;36.73;;;;;;;;;;5053858;28;20303;-71
2021/10/10 00:39:11;;;;;;;53.33;38.30;;;;;;;;;;5056810;28;20225;-71
2021/10/10 00:41:38;;;;;;;43.27;36.67;;;;;;;;;;5055894;28;20619;-71
2021/10/10 00:44:09;;;;;;;50.53;40.47;;;;;;;;;;5056256;28;20246;-71
2021/10/10 00:46:36;;;;;;;50.30;40.33;;;;;;;;;;5057238;28;20256;-71
2021/10/10 00:49:03;;;;;;;50.63;39.70;;;;;;;;;;5053947;28;20568;-71
2021/10/10 00:51:34;;;;;;;51.60;38.60;;;;;;;;;;5054093;28;21058;-71
2021/10/10 00:54:00;;;;;;;50.90;38.60;;;;;;;;;;5056091;28;20573;-71
2021/10/10 00:56:28;;;;;;;50.57;39.90;;;;;;;;;;5056593;28;20220;-71
2021/10/10 00:58:55;;;;;;;50.80;39.13;;;;;;;;;;5055540;28;20347;-71
2021/10/10 01:01:23;;;;;;;48.40;37.83;;;;;;;;;;5056180;28;20224;-71
2021/10/10 01:03:50;;;;;;;46.80;35.97;;;;;;;;;;5054281;28;20215;-71
2021/10/10 01:06:17;;;;;;;47.30;37.43;;;;;;;;;;5055699;28;20239;-71
2021/10/10 01:08:43;;;;;;;50.37;38.50;;;;;;;;;;5056842;28;20213;-71
2021/10/10 01:11:11;;;;;;;52.63;40.13;;;;;;;;;;5056402;28;20436;-71
2021/10/10 01:13:38;;;;;;;50.77;39.17;;;;;;;;;;5053918;28;20274;-71
2021/10/10 01:16:05;;;;;;;52.50;37.80;;;;;;;;;;5056644;28;20285;-71
2021/10/10 01:18:33;;;;;;;48.50;38.17;;;;;;;;;;5054564;28;20212;-71
2021/10/10 01:21:01;;;;;;;49.40;36.57;;;;;;;;;;5054841;28;20285;-71
2021/10/10 01:23:28;;;;;;;49.37;38.87;;;;;;;;;;5054798;28;20599;-71
2021/10/10 01:25:54;;;;;;;44.07;36.27;;;;;;;;;;5053875;28;20212;-71
2021/10/10 01:28:21;;;;;;;48.50;37.27;;;;;;;;;;5055233;28;20650;-71
2021/10/10 01:30:48;;;;;;;44.90;35.37;;;;;;;;;;5054228;28;20563;-71
2021/10/10 01:33:15;;;;;;;46.47;34.17;;;;;;;;;;5052991;28;20219;-71
2021/10/10 01:35:42;;;;;;;46.87;35.63;;;;;;;;;;5056080;28;20816;-71
2021/10/10 01:38:15;;;;;;;42.80;33.60;;;;;;;;;;5056760;28;20224;-71
2021/10/10 01:40:44;;;;;;;46.60;36.63;;;;;;;;;;5053887;28;20219;-71
2021/10/10 01:43:10;;;;;;;52.10;38.70;;;;;;;;;;5056144;28;20258;-71
2021/10/10 01:45:38;;;;;;;58.33;43.20;;;;;;;;;;5056691;28;20615;-71
2021/10/10 01:48:05;;;;;;;58.60;43.00;;;;;;;;;;5056355;28;20215;-71
2021/10/10 01:50:32;;;;;;;43.67;34.70;;;;;;;;;;5054957;28;20320;-71
2021/10/10 01:53:00;;;;;;;42.33;33.40;;;;;;;;;;5055821;28;20211;-71
2021/10/10 01:55:28;;;;;;;48.03;35.63;;;;;;;;;;5054570;28;20239;-71
2021/10/10 01:57:54;;;;;;;50.17;37.97;;;;;;;;;;5055743;28;20240;-71
2021/10/10 02:00:20;;;;;;;45.37;33.93;;;;;;;;;;5057086;28;20216;-71
2021/10/10 02:02:47;;;;;;;45.47;35.47;;;;;;;;;;5055584;28;20280;-71
2021/10/10 02:05:13;;;;;;;41.60;34.70;;;;;;;;;;5053224;28;20286;-71
2021/10/10 02:07:40;;;;;;;51.43;38.60;;;;;;;;;;5055409;28;20271;-71
2021/10/10 02:10:08;;;;;;;38.23;31.97;;;;;;;;;;5056738;28;20218;-71
2021/10/10 02:12:36;;;;;;;42.83;35.67;;;;;;;;;;5057973;28;20376;-71
2021/10/10 02:15:03;;;;;;;43.97;35.43;;;;;;;;;;5056388;28;20685;-71
2021/10/10 02:17:29;;;;;;;39.03;32.83;;;;;;;;;;5058157;28;20268;-71
2021/10/10 02:19:56;;;;;;;42.10;34.43;;;;;;;;;;5059104;28;20289;-71
2021/10/10 02:22:22;;;;;;;46.33;35.20;;;;;;;;;;5055719;28;20242;-71
2021/10/10 02:24:48;;;;;;;50.30;38.77;;;;;;;;;;5058014;28;20682;-71
2021/10/10 02:27:15;;;;;;;60.57;41.50;;;;;;;;;;5058091;28;20227;-71
2021/10/10 02:29:43;;;;;;;48.17;35.83;;;;;;;;;;5057260;28;20268;-71
2021/10/10 02:32:09;;;;;;;59.73;41.63;;;;;;;;;;5056583;28;20207;-71
2021/10/10 02:34:35;;;;;;;46.37;35.70;;;;;;;;;;5058187;28;20609;-71
2021/10/10 02:37:02;;;;;;;50.30;36.97;;;;;;;;;;5058385;28;20732;-71
2021/10/10 02:39:28;;;;;;;54.67;40.57;;;;;;;;;;5058514;28;20212;-71
2021/10/10 02:41:55;;;;;;;57.30;42.57;;;;;;;;;;5056886;28;20232;-71
2021/10/10 02:44:21;;;;;;;50.27;36.50;;;;;;;;;;5059567;28;20276;-71
2021/10/10 02:46:49;;;;;;;49.37;37.57;;;;;;;;;;5058512;28;20232;-71
2021/10/10 02:49:15;;;;;;;53.27;39.50;;;;;;;;;;5055774;28;20794;-71
2021/10/10 02:51:41;;;;;;;55.70;41.70;;;;;;;;;;5057584;28;20740;-71
2021/10/10 02:54:08;;;;;;;49.23;38.50;;;;;;;;;;5056718;28;20216;-71
2021/10/10 02:56:34;;;;;;;54.83;40.37;;;;;;;;;;5055860;28;20243;-71
2021/10/10 02:59:01;;;;;;;52.60;37.90;;;;;;;;;;5058879;28;20218;-71
2021/10/10 03:01:27;;;;;;;51.63;36.87;;;;;;;;;;5059364;28;20702;-71
2021/10/10 03:03:55;;;;;;;50.77;36.77;;;;;;;;;;5057522;28;20608;-71
2021/10/10 03:06:21;;;;;;;45.43;34.37;;;;;;;;;;5059117;28;20230;-71
2021/10/10 03:08:47;;;;;;;48.03;34.43;;;;;;;;;;5054866;28;20214;-71
2021/10/10 03:11:14;;;;;;;46.03;36.03;;;;;;;;;;5056674;28;20836;-71
2021/10/10 03:13:40;;;;;;;43.07;33.73;;;;;;;;;;5057105;28;20257;-71
2021/10/10 03:16:06;;;;;;;38.43;30.47;;;;;;;;;;5058209;28;20238;-71
2021/10/10 03:18:33;;;;;;;38.13;32.03;;;;;;;;;;5054924;28;20260;-71
2021/10/10 03:21:01;;;;;;;38.97;30.70;;;;;;;;;;5056457;28;20280;-71
2021/10/10 03:23:27;;;;;;;39.50;32.70;;;;;;;;;;5058214;28;20569;-71
2021/10/10 03:25:53;;;;;;;36.17;30.43;;;;;;;;;;5057698;28;20567;-71
2021/10/10 03:28:20;;;;;;;36.17;28.80;;;;;;;;;;5057611;28;20284;-71
2021/10/10 03:30:46;;;;;;;33.80;28.83;;;;;;;;;;5057004;28;20211;-71
2021/10/10 03:33:12;;;;;;;33.33;27.73;;;;;;;;;;5055029;28;20260;-71
2021/10/10 03:35:39;;;;;;;39.67;31.00;;;;;;;;;;5058736;28;20653;-71
2021/10/10 03:38:07;;;;;;;33.73;28.23;;;;;;;;;;5058025;28;20585;-71
2021/10/10 03:40:33;;;;;;;34.53;27.97;;;;;;;;;;5055805;28;20218;-71
2021/10/10 03:43:00;;;;;;;36.40;28.97;;;;;;;;;;5056392;28;20681;-71
2021/10/10 03:45:26;;;;;;;36.80;28.23;;;;;;;;;;5055888;28;20214;-71
2021/10/10 03:47:52;;;;;;;33.27;26.67;;;;;;;;;;5058512;28;20264;-71
2021/10/10 03:50:19;;;;;;;33.70;28.13;;;;;;;;;;5056982;28;20230;-71
2021/10/10 03:52:45;;;;;;;31.40;26.47;;;;;;;;;;5056175;28;20210;-71
2021/10/10 03:57:54;;;;;;;35.80;27.97;;;;;;;;;;5052349;28;20258;-71
2021/10/10 04:00:20;;;;;;;35.37;28.40;;;;;;;;;;5055487;28;20265;-71
2021/10/10 04:02:47;;;;;;;36.87;30.43;;;;;;;;;;5056889;28;20214;-71
2021/10/10 04:05:20;;;;;;;40.03;31.17;;;;;;;;;;5056906;28;20234;-71
2021/10/10 04:07:48;;;;;;;37.57;30.87;;;;;;;;;;5056327;28;20213;-71
2021/10/10 04:10:16;;;;;;;43.67;32.07;;;;;;;;;;5055845;28;20218;-71
2021/10/10 04:12:43;;;;;;;37.53;30.30;;;;;;;;;;5054995;28;20271;-71
2021/10/10 04:15:10;;;;;;;42.77;31.97;;;;;;;;;;5056593;28;20349;-71
2021/10/10 04:17:36;;;;;;;40.83;32.67;;;;;;;;;;5055831;28;20214;-72
2021/10/10 04:20:03;;;;;;;43.10;33.30;;;;;;;;;;5057119;28;20253;-71
2021/10/10 04:22:30;;;;;;;40.37;31.90;;;;;;;;;;5055781;28;20222;-71
2021/10/10 04:24:57;;;;;;;39.53;32.43;;;;;;;;;;5055029;28;20259;-71
2021/10/10 04:27:24;;;;;;;39.03;32.47;;;;;;;;;;5054539;28;20222;-71
2021/10/10 04:29:51;;;;;;;48.27;35.13;;;;;;;;;;5054937;28;20919;-71
2021/10/10 04:32:17;;;;;;;52.20;45.23;;;;;;;;;;5050143;28;20843;-72
2021/10/10 04:34:43;;;;;;;49.60;38.60;;;;;;;;;;5057393;28;20283;-72
2021/10/10 04:37:10;;;;;;;46.50;34.30;;;;;;;;;;5054278;28;20237;-72
2021/10/10 04:39:36;;;;;;;43.17;34.23;;;;;;;;;;5055760;28;20219;-72
2021/10/10 04:42:04;;;;;;;43.47;33.40;;;;;;;;;;5054508;28;20945;-72
2021/10/10 04:44:31;;;;;;;43.23;32.67;;;;;;;;;;5056204;28;20199;-72
2021/10/10 04:46:58;;;;;;;47.83;34.30;;;;;;;;;;5055297;28;20235;-72
2021/10/10 04:49:24;;;;;;;43.30;34.07;;;;;;;;;;5054962;28;20203;-72
2021/10/10 04:51:51;;;;;;;48.23;36.03;;;;;;;;;;5055275;28;20264;-72
2021/10/10 04:54:17;;;;;;;50.87;38.23;;;;;;;;;;5055239;28;20211;-72
2021/10/10 04:56:43;;;;;;;62.60;40.40;;;;;;;;;;5054328;28;20238;-72
2021/10/10 04:59:10;;;;;;;43.37;35.20;;;;;;;;;;5054483;28;20218;-72
2021/10/10 05:01:37;;;;;;;51.77;37.13;;;;;;;;;;5055995;28;20221;-72
2021/10/10 05:04:04;;;;;;;48.10;38.47;;;;;;;;;;5055457;28;20210;-72
2021/10/10 05:06:30;;;;;;;53.07;38.27;;;;;;;;;;5056817;28;20287;-72
2021/10/10 05:08:57;;;;;;;49.37;36.07;;;;;;;;;;5053760;28;20275;-72
2021/10/10 05:11:23;;;;;;;38.03;32.27;;;;;;;;;;5055750;28;20215;-72
2021/10/10 05:13:49;;;;;;;39.43;31.13;;;;;;;;;;5053453;28;20720;-72
2021/10/10 05:16:16;;;;;;;43.63;33.93;;;;;;;;;;5054941;28;20805;-72
2021/10/10 05:18:43;;;;;;;41.77;32.67;;;;;;;;;;5054037;28;20218;-72
2021/10/10 05:21:10;;;;;;;45.17;34.77;;;;;;;;;;5055397;28;20238;-72
2021/10/10 05:23:36;;;;;;;46.83;33.87;;;;;;;;;;5054886;28;20657;-72
2021/10/10 05:26:03;;;;;;;47.27;35.00;;;;;;;;;;5055508;28;20222;-72
2021/10/10 05:28:29;;;;;;;46.23;36.33;;;;;;;;;;5054030;28;20238;-72
2021/10/10 05:30:56;;;;;;;42.33;35.00;;;;;;;;;;5054735;28;20653;-72
2021/10/10 05:33:23;;;;;;;46.17;34.63;;;;;;;;;;5056815;28;20908;-72
2021/10/10 05:35:51;;;;;;;41.83;33.40;;;;;;;;;;5053254;28;20238;-71
2021/10/10 05:38:17;;;;;;;51.67;38.97;;;;;;;;;;5053369;28;20211;-72
2021/10/10 05:40:44;;;;;;;46.23;33.87;;;;;;;;;;5053268;28;20218;-71
2021/10/10 05:43:10;;;;;;;43.23;33.00;;;;;;;;;;5052215;28;20620;-72
2021/10/10 05:45:37;;;;;;;43.10;33.20;;;;;;;;;;5054930;28;20214;-72
2021/10/10 05:48:03;;;;;;;48.77;36.53;;;;;;;;;;5055209;28;20223;-72
2021/10/10 05:50:30;;;;;;;41.67;33.53;;;;;;;;;;5051438;28;20237;-72
2021/10/10 05:52:59;;;;;;;44.67;35.20;;;;;;;;;;5053690;28;20586;-72
2021/10/10 05:55:25;;;;;;;43.57;35.60;;;;;;;;;;5052153;28;20226;-71
2021/10/10 05:57:52;;;;;;;40.50;33.60;;;;;;;;;;5052485;28;20247;-72
2021/10/10 06:00:20;;;;;;;43.97;35.07;;;;;;;;;;5054231;28;20215;-72
2021/10/10 06:02:47;;;;;;;44.57;35.70;;;;;;;;;;5053592;28;20639;-72
2021/10/10 06:05:15;;;;;;;47.63;34.67;;;;;;;;;;5054256;28;20234;-72
2021/10/10 06:07:42;;;;;;;53.10;38.30;;;;;;;;;;5050941;28;20256;-72
2021/10/10 06:10:10;;;;;;;41.80;34.73;;;;;;;;;;5051712;28;20217;-71
2021/10/10 06:12:38;;;;;;;52.70;41.13;;;;;;;;;;5052953;28;20258;-72
2021/10/10 06:15:07;;;;;;;48.47;38.17;;;;;;;;;;5052216;28;20268;-71
2021/10/10 06:17:34;;;;;;;51.57;39.57;;;;;;;;;;5050348;28;20300;-71
2021/10/10 06:20:02;;;;;;;56.37;42.43;;;;;;;;;;5052997;28;20654;-71
2021/10/10 06:22:28;;;;;;;55.67;43.60;;;;;;;;;;5049629;28;20233;-71
2021/10/10 06:24:54;;;;;;;67.37;48.93;;;;;;;;;;5052229;28;20668;-71
2021/10/10 06:27:22;;;;;;;64.83;48.87;;;;;;;;;;5052233;28;20288;-71
2021/10/10 06:29:48;;;;;;;68.20;48.87;;;;;;;;;;5052803;28;20218;-72
2021/10/10 06:32:15;;;;;;;61.27;48.23;;;;;;;;;;5051743;28;20272;-72
2021/10/10 06:34:41;;;;;;;65.97;48.37;;;;;;;;;;5052417;28;20235;-72
2021/10/10 06:37:08;;;;;;;61.93;47.43;;;;;;;;;;5053374;28;20243;-71
2021/10/10 06:39:35;;;;;;;61.47;47.07;;;;;;;;;;5050644;28;20265;-72
2021/10/10 06:42:01;;;;;;;61.97;47.60;;;;;;;;;;5052081;28;20319;-72
2021/10/10 06:44:30;;;;;;;57.93;46.00;;;;;;;;;;5049551;28;20687;-71
2021/10/10 06:46:56;;;;;;;64.27;46.93;;;;;;;;;;5052291;28;20217;-71
2021/10/10 06:49:22;;;;;;;60.47;46.30;;;;;;;;;;5052384;28;20218;-71
2021/10/10 06:51:49;;;;;;;67.23;48.67;;;;;;;;;;5052583;28;20235;-71
2021/10/10 06:54:15;;;;;;;56.57;43.67;;;;;;;;;;5052940;28;20214;-72
2021/10/10 06:56:42;;;;;;;58.83;45.10;;;;;;;;;;5055138;28;20260;-71
2021/10/10 06:59:08;;;;;;;56.67;44.37;;;;;;;;;;5053937;28;20222;-71
2021/10/10 07:01:36;;;;;;;55.33;43.60;;;;;;;;;;5054362;28;20673;-72
2021/10/10 07:04:02;;;;;;;48.53;40.23;;;;;;;;;;5056261;28;20615;-72
2021/10/10 07:06:29;;;;;;;48.97;38.67;;;;;;;;;;5054454;28;20227;-72
2021/10/10 07:08:55;;;;;;;51.47;40.00;;;;;;;;;;5055017;28;20275;-71
2021/10/10 07:11:22;;;;;;;40.20;35.27;;;;;;;;;;5053235;28;20641;-72
2021/10/10 07:13:49;;;;;;;48.37;39.37;;;;;;;;;;5054211;28;20223;-72
2021/10/10 07:16:16;;;;;;;44.83;38.43;;;;;;;;;;5054316;28;20724;-72
2021/10/10 07:18:46;;;;;;;40.60;35.27;;;;;;;;;;5056087;28;20221;-72
2021/10/10 07:21:38;;;;;;;43.97;37.50;;;;;;;;;;5052056;28;20243;-72
2021/10/10 07:26:49;;;;;;;43.60;38.23;;;;;;;;;;5054887;28;20227;-72
2021/10/10 07:29:15;;;;;;;44.83;39.93;;;;;;;;;;5053487;28;20835;-72
2021/10/10 07:31:41;;;;;;;47.73;39.97;;;;;;;;;;5054925;28;20340;-72
2021/10/10 07:34:09;;;;;;;49.03;41.70;;;;;;;;;;5053372;28;20260;-72
2021/10/10 07:36:35;;;;;;;41.80;36.53;;;;;;;;;;5053483;28;20271;-72
2021/10/10 07:39:02;;;;;;;43.80;36.33;;;;;;;;;;5052687;28;20219;-72
2021/10/10 07:41:28;;;;;;;39.53;35.23;;;;;;;;;;5051439;28;20303;-72
2021/10/10 07:43:54;;;;;;;34.27;30.53;;;;;;;;;;5053662;28;20219;-72
2021/10/10 07:46:22;;;;;;;39.57;35.47;;;;;;;;;;5052198;28;20257;-72
2021/10/10 07:48:49;;;;;;;34.97;31.37;;;;;;;;;;5052228;28;20719;-72
2021/10/10 07:51:18;;;;;;;38.17;34.23;;;;;;;;;;5052835;28;20233;-72
2021/10/10 07:53:45;;;;;;;37.87;34.00;;;;;;;;;;5055080;28;20221;-72
2021/10/10 07:56:11;;;;;;;42.50;38.00;;;;;;;;;;5052380;28;20570;-70
2021/10/10 07:58:37;;;;;;;39.73;35.53;;;;;;;;;;5053276;28;20233;-72
2021/10/10 08:01:04;;;;;;;38.50;34.60;;;;;;;;;;5054878;28;20220;-72
2021/10/10 08:03:30;;;;;;;40.13;36.07;;;;;;;;;;5052893;28;20217;-72
2021/10/10 08:05:57;;;;;;;36.60;32.70;;;;;;;;;;5055060;28;20263;-72
2021/10/10 08:08:24;;;;;;;36.00;32.33;;;;;;;;;;5053097;28;20242;-72
2021/10/10 08:10:51;;;;;;;33.70;30.37;;;;;;;;;;5052661;28;20212;-72
2021/10/10 08:13:17;;;;;;;39.70;35.43;;;;;;;;;;5050806;28;20337;-72
2021/10/10 08:15:44;;;;;;;38.87;35.10;;;;;;;;;;5053391;28;20271;-72
2021/10/10 08:18:10;;;;;;;37.27;33.73;;;;;;;;;;5051858;28;20315;-72
2021/10/10 08:20:38;;;;;;;36.57;32.97;;;;;;;;;;5053346;28;20315;-72
2021/10/10 08:23:05;;;;;;;35.60;31.93;;;;;;;;;;5052489;28;20229;-72
2021/10/10 08:25:34;;;;;;;36.47;33.07;;;;;;;;;;5052966;28;21105;-72
2021/10/10 08:28:00;;;;;;;38.27;34.60;;;;;;;;;;5053426;28;21042;-72
2021/10/10 08:30:27;;;;;;;38.67;34.73;;;;;;;;;;5053002;28;20216;-71
2021/10/10 08:32:54;;;;;;;37.80;34.00;;;;;;;;;;5051662;28;20272;-72
2021/10/10 08:35:20;;;;;;;40.50;35.27;;;;;;;;;;5053913;28;20228;-72
2021/10/10 08:37:47;;;;;;;38.20;34.23;;;;;;;;;;5053964;28;20233;-72
2021/10/10 08:40:16;;;;;;;35.67;32.07;;;;;;;;;;5051818;28;20565;-72
2021/10/10 08:42:45;;;;;;;34.80;31.20;;;;;;;;;;5052622;28;20230;-71
2021/10/10 08:45:15;;;;;;;34.57;30.97;;;;;;;;;;5051871;28;20205;-72
2021/10/10 08:47:43;;;;;;;37.60;33.63;;;;;;;;;;5051305;28;20276;-72
2021/10/10 08:50:18;;;;;;;33.93;30.53;;;;;;;;;;5054169;28;20320;-72
2021/10/10 08:52:45;;;;;;;38.77;33.23;;;;;;;;;;5051982;28;20225;-72
2021/10/10 08:55:12;;;;;;;36.67;32.80;;;;;;;;;;5051745;28;20307;-72
2021/10/10 08:57:39;;;;;;;33.53;30.03;;;;;;;;;;5053585;28;20242;-72
2021/10/10 09:00:12;;;;;;;39.23;33.07;;;;;;;;;;5053530;28;20218;-72
2021/10/10 09:02:40;;;;;;;40.83;35.73;;;;;;;;;;5052026;28;20210;-72
2021/10/10 09:05:07;;;;;;;40.10;35.90;;;;;;;;;;5054181;28;20242;-72
2021/10/10 09:07:33;;;;;;;38.97;34.77;;;;;;;;;;5051840;28;20209;-72
2021/10/10 09:10:24;;;;;;;37.47;32.17;;;;;;;;;;5051640;28;20582;-72
2021/10/10 09:12:51;;;;;;;36.07;32.47;;;;;;;;;;5053450;28;20246;-72
2021/10/10 09:15:21;;;;;;;33.53;29.93;;;;;;;;;;5052209;28;20222;-72
2021/10/10 09:17:58;;;;;;;33.43;29.90;;;;;;;;;;5051928;28;20238;-72
2021/10/10 09:20:30;;;;;;;34.07;30.33;;;;;;;;;;5050207;28;20226;-72
2021/10/10 09:22:57;;;;;;;30.90;27.73;;;;;;;;;;5053193;28;20225;-72
2021/10/10 09:25:24;;;;;;;36.07;32.47;;;;;;;;;;5054283;28;20217;-72
2021/10/10 09:27:50;;;;;;;31.87;28.67;;;;;;;;;;5053251;28;20257;-74
2021/10/10 09:30:21;;;;;;;33.30;29.90;;;;;;;;;;5052931;28;20272;-74
2021/10/10 09:32:54;;;;;;;30.57;27.47;;;;;;;;;;5053317;28;20205;-74
2021/10/10 09:35:27;;;;;;;33.33;28.23;;;;;;;;;;5053220;28;20685;-73
2021/10/10 09:38:10;;;;;;;35.53;31.70;;;;;;;;;;5052956;28;20296;-74
2021/10/10 09:40:41;;;;;;;38.10;34.23;;;;;;;;;;5052232;28;21126;-72
2021/10/10 09:43:08;;;;;;;37.87;33.97;;;;;;;;;;5053187;28;20313;-74
2021/10/10 09:45:53;;;;;;;35.37;31.57;;;;;;;;;;5051633;28;20321;-73
2021/10/10 09:48:29;;;;;;;38.70;32.70;;;;;;;;;;5051480;28;20738;-71
2021/10/10 09:50:55;;;;;;;36.00;32.10;;;;;;;;;;5051141;28;20313;-73
2021/10/10 09:53:30;;;;;;;41.90;35.13;;;;;;;;;;5050596;28;20211;-73
2021/10/10 09:55:59;;;;;;;38.97;34.83;;;;;;;;;;5051048;28;20219;-71
2021/10/10 09:58:34;;;;;;;38.03;34.00;;;;;;;;;;5051225;28;20243;-71
2021/10/10 10:01:14;;;;;;;41.97;37.47;;;;;;;;;;5053971;28;20289;-72
2021/10/10 10:04:01;;;;;;;42.90;37.07;;;;;;;;;;5053959;28;20683;-71
2021/10/10 10:06:30;;;;;;;46.27;37.43;;;;;;;;;;5050487;28;20253;-73
2021/10/10 10:09:01;;;;;;;38.83;34.63;;;;;;;;;;5053468;28;20256;-74
2021/10/10 10:11:30;;;;;;;39.13;34.70;;;;;;;;;;5050995;28;20209;-73
2021/10/10 10:14:00;;;;;;;44.67;37.57;;;;;;;;;;5053918;28;20214;-74
2021/10/10 10:16:28;;;;;;;41.83;37.30;;;;;;;;;;5052558;28;20724;-73
2021/10/10 10:18:55;;;;;;;47.40;39.43;;;;;;;;;;5053562;28;20288;-73
2021/10/10 10:21:22;;;;;;;43.67;38.93;;;;;;;;;;5050985;28;20234;-74
2021/10/10 10:23:49;;;;;;;44.70;36.87;;;;;;;;;;5051388;28;20224;-71
2021/10/10 10:26:16;;;;;;;43.20;38.20;;;;;;;;;;5050895;28;20222;-71
2021/10/10 10:28:44;;;;;;;44.90;38.73;;;;;;;;;;5051974;28;20289;-72
2021/10/10 10:31:13;;;;;;;45.70;40.00;;;;;;;;;;5056048;28;20670;-71
2021/10/10 10:33:41;;;;;;;46.50;40.20;;;;;;;;;;5057399;28;20229;-71
2021/10/10 10:36:07;;;;;;;48.90;41.03;;;;;;;;;;5057359;28;20227;-73
2021/10/10 10:38:44;;;;;;;52.43;43.87;;;;;;;;;;5056623;28;20671;-71
2021/10/10 10:41:44;;;;;;;59.50;44.77;;;;;;;;;;5056579;28;20640;-71
2021/10/10 10:44:40;;;;;;;54.03;43.70;;;;;;;;;;5055342;28;20214;-73
2021/10/10 10:47:08;;;;;;;55.63;45.43;;;;;;;;;;5052627;28;20210;-73
2021/10/10 10:50:04;;;;;;;50.70;42.20;;;;;;;;;;5055604;28;20272;-73
2021/10/10 10:52:33;;;;;;;66.80;46.77;;;;;;;;;;5055372;28;20201;-73
2021/10/10 10:55:13;;;;;;;53.57;44.50;;;;;;;;;;5055657;28;20207;-73
2021/10/10 10:57:43;;;;;;;53.83;43.07;;;;;;;;;;5053633;28;20227;-73
2021/10/10 11:00:12;;;;;;;54.47;44.93;;;;;;;;;;5055284;28;20219;-71
2021/10/10 11:02:52;;;;;;;53.87;45.13;;;;;;;;;;5054988;28;20269;-71
2021/10/10 11:05:51;;;;;;;54.03;45.47;;;;;;;;;;5054014;28;20235;-71
2021/10/10 11:08:35;;;;;;;58.27;46.23;;;;;;;;;;5053254;28;20364;-71
2021/10/10 11:11:14;;;;;;;60.87;48.73;;;;;;;;;;5054458;28;20201;-73
2021/10/10 11:13:42;;;;;;;56.87;46.27;;;;;;;;;;5056757;28;20238;-71
2021/10/10 11:16:11;;;;;;;62.83;49.40;;;;;;;;;;5053696;28;20258;-73
2021/10/10 11:18:42;;;;;;;61.60;48.50;;;;;;;;;;5053125;28;20240;-71
2021/10/10 11:21:12;;;;;;;58.17;46.80;;;;;;;;;;5056630;28;20231;-71
2021/10/10 11:23:38;;;;;;;56.83;45.77;;;;;;;;;;5055411;28;20207;-71
2021/10/10 11:26:07;;;;;;;52.60;43.87;;;;;;;;;;5054667;28;20305;-71
2021/10/10 11:28:44;;;;;;;51.40;42.03;;;;;;;;;;5055828;28;20230;-71
2021/10/10 11:31:13;;;;;;;57.00;44.93;;;;;;;;;;5055817;28;20698;-71
2021/10/10 11:33:41;;;;;;;53.57;41.67;;;;;;;;;;5054159;28;20223;-72
2021/10/10 11:36:08;;;;;;;56.53;43.50;;;;;;;;;;5055291;28;20284;-72
2021/10/10 11:38:50;;;;;;;53.30;43.53;;;;;;;;;;5054785;28;20263;-71
2021/10/10 11:41:17;;;;;;;46.53;39.63;;;;;;;;;;5054383;28;20213;-72
2021/10/10 11:43:56;;;;;;;53.77;44.87;;;;;;;;;;5052871;28;20755;-71
2021/10/10 11:46:23;;;;;;;47.63;41.10;;;;;;;;;;5054748;28;20858;-71
2021/10/10 11:48:51;;;;;;;40.20;33.10;;;;;;;;;;5054520;28;20217;-71
2021/10/10 11:51:32;;;;;;;40.33;35.30;;;;;;;;;;5054116;28;20685;-71
2021/10/10 11:53:59;;;;;;;40.50;34.33;;;;;;;;;;5054171;28;20652;-72
2021/10/10 11:56:26;;;;;;;39.10;34.10;;;;;;;;;;5052403;28;20299;-71
2021/10/10 11:58:52;;;;;;;42.63;35.77;;;;;;;;;;5054391;28;20302;-71
2021/10/10 12:01:19;;;;;;;42.03;34.40;;;;;;;;;;5053674;28;20267;-71
2021/10/10 12:03:46;;;;;;;43.47;37.23;;;;;;;;;;5055539;28;20249;-71
2021/10/10 12:06:17;;;;;;;39.77;35.17;;;;;;;;;;5054138;28;20269;-71
2021/10/10 12:08:44;;;;;;;37.13;31.73;;;;;;;;;;5054322;28;20216;-71
2021/10/10 12:11:12;;;;;;;37.07;30.07;;;;;;;;;;5053772;28;20214;-71
2021/10/10 12:13:53;;;;;;;34.37;28.57;;;;;;;;;;5052814;28;20252;-71
2021/10/10 12:16:19;;;;;;;35.13;30.03;;;;;;;;;;5053716;28;20224;-71
2021/10/10 12:18:46;;;;;;;39.00;29.73;;;;;;;;;;5054121;28;20250;-71
2021/10/10 12:21:21;;;;;;;36.33;29.10;;;;;;;;;;5053250;28;20241;-71
2021/10/10 12:24:09;;;;;;;35.17;31.10;;;;;;;;;;5054561;28;20630;-71
2021/10/10 12:26:51;;;;;;;34.67;29.83;;;;;;;;;;5052980;28;20381;-71
2021/10/10 12:29:22;;;;;;;32.97;28.30;;;;;;;;;;5051631;28;20635;-71
2021/10/10 12:31:48;;;;;;;31.13;27.80;;;;;;;;;;5054825;28;20742;-71
2021/10/10 12:34:15;;;;;;;36.60;31.70;;;;;;;;;;5053369;28;20214;-71
2021/10/10 12:36:46;;;;;;;36.67;30.03;;;;;;;;;;5055065;28;20303;-71
2021/10/10 12:39:13;;;;;;;33.20;27.83;;;;;;;;;;5052158;28;20240;-71
2021/10/10 12:41:39;;;;;;;36.37;31.07;;;;;;;;;;5052034;28;20733;-71
2021/10/10 12:44:15;;;;;;;37.47;33.43;;;;;;;;;;5055181;28;21007;-71
2021/10/10 12:46:52;;;;;;;34.57;30.27;;;;;;;;;;5052154;28;20212;-71
2021/10/10 12:49:29;;;;;;;39.00;33.93;;;;;;;;;;5052658;28;20672;-71
2021/10/10 12:51:57;;;;;;;34.33;29.93;;;;;;;;;;5051651;28;20795;-71
2021/10/10 12:54:26;;;;;;;38.77;29.73;;;;;;;;;;5050784;28;20220;-71
2021/10/10 12:57:04;;;;;;;29.00;25.90;;;;;;;;;;5052767;28;20236;-71
2021/10/10 12:59:33;;;;;;;31.20;26.27;;;;;;;;;;5054655;28;20964;-71
2021/10/10 13:02:01;;;;;;;32.17;25.53;;;;;;;;;;5052863;28;20253;-71
2021/10/10 13:04:27;;;;;;;29.87;25.07;;;;;;;;;;5053501;28;20216;-71
2021/10/10 13:06:55;;;;;;;29.87;22.63;;;;;;;;;;5052551;28;20253;-71
2021/10/10 13:09:24;;;;;;;32.70;26.73;;;;;;;;;;5054511;28;20881;-71
2021/10/10 13:11:51;;;;;;;33.87;29.47;;;;;;;;;;5053470;28;20242;-70
2021/10/10 13:14:17;;;;;;;33.47;29.63;;;;;;;;;;5052139;28;20213;-71
2021/10/10 13:16:45;;;;;;;36.97;28.83;;;;;;;;;;5052735;28;20217;-71
2021/10/10 13:19:11;;;;;;;35.53;31.03;;;;;;;;;;5050843;28;20653;-72
2021/10/10 13:21:38;;;;;;;32.33;28.87;;;;;;;;;;5052867;28;20861;-71
2021/10/10 13:24:05;;;;;;;31.47;28.07;;;;;;;;;;5052964;28;20269;-70
2021/10/10 13:26:32;;;;;;;36.20;29.80;;;;;;;;;;5052407;28;20237;-70
2021/10/10 13:28:58;;;;;;;34.73;29.83;;;;;;;;;;5053195;28;20217;-72
2021/10/10 13:31:25;;;;;;;36.63;30.70;;;;;;;;;;5050886;28;20221;-73
2021/10/10 13:33:52;;;;;;;32.63;29.13;;;;;;;;;;5051231;28;20265;-73
2021/10/10 13:36:19;;;;;;;35.37;30.17;;;;;;;;;;5052644;28;20278;-73
2021/10/10 13:38:45;;;;;;;35.33;30.67;;;;;;;;;;5050808;28;20262;-73
2021/10/10 13:41:12;;;;;;;31.67;28.10;;;;;;;;;;5049913;28;20203;-73
2021/10/10 13:43:39;;;;;;;32.30;28.80;;;;;;;;;;5053536;28;20240;-73
2021/10/10 13:46:07;;;;;;;33.67;30.07;;;;;;;;;;5054156;28;20294;-73
2021/10/10 13:48:35;;;;;;;35.40;30.03;;;;;;;;;;5053335;28;20259;-73
2021/10/10 13:51:04;;;;;;;34.23;30.57;;;;;;;;;;5053675;28;20231;-73
2021/10/10 13:53:30;;;;;;;34.60;29.67;;;;;;;;;;5051428;28;20233;-73
2021/10/10 13:55:57;;;;;;;34.93;31.17;;;;;;;;;;5051550;28;20220;-74
2021/10/10 13:58:23;;;;;;;32.83;29.50;;;;;;;;;;5051306;28;20229;-73
2021/10/10 14:00:52;;;;;;;33.57;27.67;;;;;;;;;;5051537;28;20263;-73
2021/10/10 14:03:19;;;;;;;35.57;29.63;;;;;;;;;;5052491;28;20267;-73
2021/10/10 14:05:47;;;;;;;37.77;31.50;;;;;;;;;;5056820;28;20234;-73
2021/10/10 14:08:16;;;;;;;35.17;29.73;;;;;;;;;;5056996;28;20222;-73
2021/10/10 14:10:44;;;;;;;36.50;32.67;;;;;;;;;;5056057;28;20197;-73
2021/10/10 14:13:14;;;;;;;33.70;30.00;;;;;;;;;;5056323;28;20682;-73
2021/10/10 14:15:41;;;;;;;33.37;28.80;;;;;;;;;;5055845;28;20218;-73
2021/10/10 14:18:08;;;;;;;34.00;30.13;;;;;;;;;;5054951;28;20279;-73
2021/10/10 14:20:35;;;;;;;33.30;28.07;;;;;;;;;;5055756;28;20241;-73
2021/10/10 14:23:01;;;;;;;34.33;28.20;;;;;;;;;;5057442;28;20283;-73
2021/10/10 14:25:30;;;;;;;31.33;28.03;;;;;;;;;;5055278;28;20250;-73
2021/10/10 14:27:58;;;;;;;31.13;27.83;;;;;;;;;;5056251;28;20228;-73